createdAt,value
2017-06-03T00:00:00.289Z,17.07
2017-06-03T00:00:04.741Z,17.08
2017-06-03T00:00:08.933Z,17.08
2017-06-03T00:00:13.238Z,17.08
2017-06-03T00:00:17.667Z,17.08
2017-06-03T00:00:22.095Z,17.08
2017-06-03T00:00:26.407Z,17.08
2017-06-03T00:00:30.835Z,17.08
2017-06-03T00:00:35.279Z,17.08
2017-06-03T00:00:39.737Z,17.07
2017-06-03T00:00:44.166Z,17.08
2017-06-03T00:00:48.476Z,17.08
2017-06-03T00:00:52.794Z,17.07
2017-06-03T00:00:57.225Z,17.08
2017-06-03T00:01:01.948Z,17.08
2017-06-03T00:01:06.270Z,17.08
2017-06-03T00:01:10.580Z,17.08
2017-06-03T00:01:14.896Z,17.09
2017-06-03T00:01:19.322Z,17.08
2017-06-03T00:01:23.756Z,17.08
2017-06-03T00:01:28.066Z,17.08
2017-06-03T00:01:32.488Z,17.08
2017-06-03T00:01:36.910Z,17.08
2017-06-03T00:01:41.334Z,17.08
2017-06-03T00:01:45.791Z,17.09
2017-06-03T00:01:49.979Z,17.08
2017-06-03T00:01:54.288Z,17.08
2017-06-03T00:01:58.722Z,17.08
2017-06-03T00:02:03.204Z,17.08
2017-06-03T00:02:07.392Z,17.08
2017-06-03T00:02:11.708Z,17.08
2017-06-03T00:02:16.020Z,17.08
2017-06-03T00:02:20.328Z,17.08
2017-06-03T00:02:24.635Z,17.09
2017-06-03T00:02:29.070Z,17.08
2017-06-03T00:02:33.496Z,17.08
2017-06-03T00:02:37.919Z,17.09
2017-06-03T00:02:42.340Z,17.09
2017-06-03T00:02:46.765Z,17.09
2017-06-03T00:02:51.200Z,17.09
2017-06-03T00:02:55.505Z,17.09
2017-06-03T00:02:59.928Z,17.09
2017-06-03T00:03:04.244Z,17.09
2017-06-03T00:03:08.555Z,17.09
2017-06-03T00:03:12.855Z,17.09
2017-06-03T00:03:17.054Z,17.09
2017-06-03T00:03:21.363Z,17.09
2017-06-03T00:03:25.798Z,17.1
2017-06-03T00:03:30.110Z,17.09
2017-06-03T00:03:34.528Z,17.1
2017-06-03T00:03:38.947Z,17.1
2017-06-03T00:03:43.395Z,17.1
2017-06-03T00:03:47.696Z,17.1
2017-06-03T00:03:52.003Z,17.1
2017-06-03T00:03:56.312Z,17.09
2017-06-03T00:04:00.625Z,17.1
2017-06-03T00:04:05.350Z,17.11
2017-06-03T00:04:09.781Z,17.1
2017-06-03T00:04:14.086Z,17.11
2017-06-03T00:04:18.517Z,17.1
2017-06-03T00:04:22.947Z,17.11
2017-06-03T00:04:27.374Z,17.11
2017-06-03T00:04:31.800Z,17.12
2017-06-03T00:04:35.990Z,17.11
2017-06-03T00:04:40.417Z,17.12
2017-06-03T00:04:44.841Z,17.13
2017-06-03T00:04:49.266Z,17.11
2017-06-03T00:04:53.463Z,17.12
2017-06-03T00:04:57.673Z,17.12
2017-06-03T00:05:02.095Z,17.12
2017-06-03T00:05:06.407Z,17.12
2017-06-03T00:05:10.724Z,17.13
2017-06-03T00:05:15.149Z,17.12
2017-06-03T00:05:19.345Z,17.12
2017-06-03T00:05:24.444Z,17.13
2017-06-03T00:05:29.719Z,17.13
2017-06-03T00:05:34.647Z,17.13
2017-06-03T00:05:39.191Z,17.13
2017-06-03T00:05:44.495Z,17.13
2017-06-03T00:05:49.315Z,17.13
2017-06-03T00:05:54.088Z,17.13
2017-06-03T00:06:00.265Z,17.13
2017-06-03T00:06:05.181Z,17.14
2017-06-03T00:06:10.147Z,17.14
2017-06-03T00:06:15.088Z,17.14
2017-06-03T00:06:19.626Z,17.14
2017-06-03T00:06:24.055Z,17.15
2017-06-03T00:06:28.861Z,17.14
2017-06-03T00:06:34.475Z,17.15
2017-06-03T00:06:39.241Z,17.14
2017-06-03T00:06:44.613Z,17.14
2017-06-03T00:06:49.981Z,17.14
2017-06-03T00:06:54.999Z,17.14
2017-06-03T00:06:59.701Z,17.15
2017-06-03T00:07:04.365Z,17.15
2017-06-03T00:07:08.811Z,17.15
2017-06-03T00:07:13.123Z,17.15
2017-06-03T00:07:17.428Z,17.15
2017-06-03T00:07:21.739Z,17.14
2017-06-03T00:07:26.053Z,17.15
2017-06-03T00:07:30.366Z,17.15
2017-06-03T00:07:34.795Z,17.16
2017-06-03T00:07:39.253Z,17.16
2017-06-03T00:07:43.676Z,17.16
2017-06-03T00:07:47.979Z,17.16
2017-06-03T00:07:52.291Z,17.16
2017-06-03T00:07:56.739Z,17.16
2017-06-03T00:08:01.164Z,17.16
2017-06-03T00:08:05.611Z,17.16
2017-06-03T00:08:09.927Z,17.16
2017-06-03T00:08:14.228Z,17.16
2017-06-03T00:08:18.421Z,17.16
2017-06-03T00:08:22.733Z,17.16
2017-06-03T00:08:27.161Z,17.15
2017-06-03T00:08:31.585Z,17.16
2017-06-03T00:08:35.771Z,17.16
2017-06-03T00:08:40.192Z,17.16
2017-06-03T00:08:44.506Z,17.16
2017-06-03T00:08:48.704Z,17.16
2017-06-03T00:08:53.008Z,17.16
2017-06-03T00:08:57.430Z,17.16
2017-06-03T00:09:01.892Z,17.16
2017-06-03T00:09:06.323Z,17.16
2017-06-03T00:09:10.645Z,17.16
2017-06-03T00:09:15.062Z,17.16
2017-06-03T00:09:19.260Z,17.16
2017-06-03T00:09:23.688Z,17.17
2017-06-03T00:09:27.994Z,17.17
2017-06-03T00:09:32.308Z,17.17
2017-06-03T00:09:36.734Z,17.16
2017-06-03T00:09:41.043Z,17.17
2017-06-03T00:09:45.466Z,17.17
2017-06-03T00:09:49.895Z,17.16
2017-06-03T00:09:54.316Z,17.17
2017-06-03T00:09:58.740Z,17.17
2017-06-03T00:10:03.058Z,17.17
2017-06-03T00:10:07.373Z,17.16
2017-06-03T00:10:11.823Z,17.17
2017-06-03T00:10:16.914Z,17.17
2017-06-03T00:10:22.352Z,17.17
2017-06-03T00:10:28.788Z,17.17
2017-06-03T00:10:36.805Z,17.18
2017-06-03T00:10:42.711Z,17.18
2017-06-03T00:10:47.971Z,17.18
2017-06-03T00:10:54.006Z,17.18
2017-06-03T00:10:59.200Z,17.18
2017-06-03T00:11:04.602Z,17.18
2017-06-03T00:11:10.045Z,17.19
2017-06-03T00:11:15.729Z,17.19
2017-06-03T00:11:21.510Z,17.19
2017-06-03T00:11:26.701Z,17.18
2017-06-03T00:11:33.185Z,17.19
2017-06-03T00:11:39.046Z,17.19
2017-06-03T00:11:43.624Z,17.19
2017-06-03T00:11:49.041Z,17.19
2017-06-03T00:11:53.729Z,17.18
2017-06-03T00:12:00.184Z,17.19
2017-06-03T00:12:05.988Z,17.19
2017-06-03T00:12:10.996Z,17.18
2017-06-03T00:12:16.264Z,17.2
2017-06-03T00:12:20.988Z,17.19
2017-06-03T00:12:28.987Z,17.2
2017-06-03T00:12:33.710Z,17.19
2017-06-03T00:12:38.260Z,17.19
2017-06-03T00:12:44.056Z,17.2
2017-06-03T00:12:50.030Z,17.2
2017-06-03T00:12:55.873Z,17.19
2017-06-03T00:13:00.962Z,17.18
2017-06-03T00:13:07.292Z,17.19
2017-06-03T00:13:12.971Z,17.19
2017-06-03T00:13:18.497Z,17.19
2017-06-03T00:13:23.393Z,17.19
2017-06-03T00:13:29.815Z,17.19
2017-06-03T00:13:35.564Z,17.19
2017-06-03T00:13:41.243Z,17.19
2017-06-03T00:13:47.832Z,17.18
2017-06-03T00:13:53.378Z,17.19
2017-06-03T00:13:58.148Z,17.19
2017-06-03T00:14:03.704Z,17.18
2017-06-03T00:14:09.391Z,17.18
2017-06-03T00:14:14.024Z,17.18
2017-06-03T00:14:18.345Z,17.18
2017-06-03T00:14:22.550Z,17.18
2017-06-03T00:14:26.978Z,17.18
2017-06-03T00:14:31.402Z,17.18
2017-06-03T00:14:35.853Z,17.17
2017-06-03T00:14:41.284Z,17.18
2017-06-03T00:14:45.973Z,17.17
2017-06-03T00:14:50.417Z,17.17
2017-06-03T00:14:56.013Z,17.17
2017-06-03T00:15:00.927Z,17.16
2017-06-03T00:15:05.899Z,17.17
2017-06-03T00:15:11.253Z,17.17
2017-06-03T00:15:16.427Z,17.17
2017-06-03T00:15:23.230Z,17.16
2017-06-03T00:15:28.210Z,17.16
2017-06-03T00:15:33.596Z,17.16
2017-06-03T00:15:39.375Z,17.16
2017-06-03T00:15:45.018Z,17.15
2017-06-03T00:15:49.918Z,17.14
2017-06-03T00:15:56.539Z,17.15
2017-06-03T00:16:01.393Z,17.15
2017-06-03T00:16:07.599Z,17.14
2017-06-03T00:16:12.494Z,17.13
2017-06-03T00:16:17.701Z,17.14
2017-06-03T00:16:22.747Z,17.13
2017-06-03T00:16:29.205Z,17.13
2017-06-03T00:16:33.738Z,17.12
2017-06-03T00:16:38.165Z,17.12
2017-06-03T00:16:43.324Z,17.12
2017-06-03T00:16:49.371Z,17.12
2017-06-03T00:16:54.599Z,17.12
2017-06-03T00:17:03.646Z,17.12
2017-06-03T00:17:09.901Z,17.12
2017-06-03T00:17:20.222Z,17.12
2017-06-03T00:17:27.212Z,17.11
2017-06-03T00:17:33.939Z,17.11
2017-06-03T00:17:41.698Z,17.1
2017-06-03T00:17:47.822Z,17.09
2017-06-03T00:17:54.325Z,17.09
2017-06-03T00:18:00.646Z,17.09
2017-06-03T00:18:07.019Z,17.09
2017-06-03T00:18:13.634Z,17.08
2017-06-03T00:18:18.771Z,17.08
2017-06-03T00:18:24.668Z,17.07
2017-06-03T00:18:31.358Z,17.08
2017-06-03T00:18:36.898Z,17.07
2017-06-03T00:18:41.405Z,17.08
2017-06-03T00:18:45.635Z,17.08
2017-06-03T00:18:50.081Z,17.07
2017-06-03T00:18:55.015Z,17.07
2017-06-03T00:19:00.059Z,17.06
2017-06-03T00:19:05.231Z,17.07
2017-06-03T00:19:10.409Z,17.06
2017-06-03T00:19:15.760Z,17.06
2017-06-03T00:19:22.843Z,17.06
2017-06-03T00:19:27.409Z,17.06
2017-06-03T00:19:33.071Z,17.05
2017-06-03T00:19:38.795Z,17.05
2017-06-03T00:19:44.261Z,17.06
2017-06-03T00:19:49.879Z,17.05
2017-06-03T00:19:54.849Z,17.04
2017-06-03T00:19:59.555Z,17.04
2017-06-03T00:20:05.788Z,17.03
2017-06-03T00:20:10.615Z,17.04
2017-06-03T00:20:16.409Z,17.03
2017-06-03T00:20:20.926Z,17.03
2017-06-03T00:20:25.787Z,17.02
2017-06-03T00:20:32.632Z,17.02
2017-06-03T00:20:37.813Z,17.03
2017-06-03T00:20:44.199Z,17.03
2017-06-03T00:20:49.086Z,17.02
2017-06-03T00:20:53.956Z,17.02
2017-06-03T00:20:58.388Z,17.02
2017-06-03T00:21:02.819Z,17.01
2017-06-03T00:21:07.667Z,17.01
2017-06-03T00:21:12.741Z,17.02
2017-06-03T00:21:19.311Z,17.02
2017-06-03T00:21:24.006Z,17.01
2017-06-03T00:21:29.379Z,17.01
2017-06-03T00:21:34.971Z,17.01
2017-06-03T00:21:40.347Z,17
2017-06-03T00:21:45.776Z,17.01
2017-06-03T00:21:50.345Z,17.01
2017-06-03T00:21:56.082Z,17
2017-06-03T00:22:01.454Z,17.01
2017-06-03T00:22:07.110Z,17.01
2017-06-03T00:22:13.176Z,17
2017-06-03T00:22:19.620Z,17
2017-06-03T00:22:25.411Z,17
2017-06-03T00:22:30.721Z,17
2017-06-03T00:22:36.701Z,16.99
2017-06-03T00:22:42.943Z,16.99
2017-06-03T00:22:49.140Z,16.99
2017-06-03T00:22:54.154Z,16.99
2017-06-03T00:23:00.013Z,16.99
2017-06-03T00:23:05.771Z,17
2017-06-03T00:23:11.650Z,17
2017-06-03T00:23:16.773Z,17
2017-06-03T00:23:23.045Z,17
2017-06-03T00:23:27.875Z,16.99
2017-06-03T00:23:33.868Z,16.99
2017-06-03T00:23:41.246Z,17
2017-06-03T00:23:46.219Z,16.99
2017-06-03T00:23:51.817Z,16.99
2017-06-03T00:23:56.576Z,16.98
2017-06-03T00:24:01.677Z,16.99
2017-06-03T00:24:07.228Z,16.99
2017-06-03T00:24:13.099Z,16.99
2017-06-03T00:24:21.714Z,16.99
2017-06-03T00:24:26.916Z,16.99
2017-06-03T00:24:31.802Z,16.99
2017-06-03T00:24:37.487Z,16.99
2017-06-03T00:24:45.492Z,16.99
2017-06-03T00:24:50.994Z,16.99
2017-06-03T00:24:55.879Z,16.99
2017-06-03T00:25:01.914Z,16.99
2017-06-03T00:25:06.344Z,16.98
2017-06-03T00:25:11.360Z,16.99
2017-06-03T00:25:16.547Z,16.99
2017-06-03T00:25:22.972Z,16.99
2017-06-03T00:25:28.418Z,16.99
2017-06-03T00:25:34.101Z,16.99
2017-06-03T00:25:38.567Z,16.98
2017-06-03T00:25:43.019Z,17
2017-06-03T00:25:47.459Z,16.99
2017-06-03T00:25:51.782Z,17
2017-06-03T00:25:55.995Z,16.99
2017-06-03T00:26:00.306Z,16.99
2017-06-03T00:26:04.893Z,16.99
2017-06-03T00:26:09.196Z,16.99
2017-06-03T00:26:13.504Z,16.99
2017-06-03T00:26:17.930Z,16.99
2017-06-03T00:26:22.386Z,16.99
2017-06-03T00:26:26.816Z,16.98
2017-06-03T00:26:31.238Z,16.99
2017-06-03T00:26:35.556Z,16.99
2017-06-03T00:26:39.998Z,16.98
2017-06-03T00:26:44.428Z,16.99
2017-06-03T00:26:48.628Z,16.99
2017-06-03T00:26:53.053Z,16.98
2017-06-03T00:26:57.482Z,16.99
2017-06-03T00:27:01.944Z,16.99
2017-06-03T00:27:06.411Z,16.99
2017-06-03T00:27:10.720Z,16.98
2017-06-03T00:27:15.030Z,16.99
2017-06-03T00:27:19.335Z,16.98
2017-06-03T00:27:23.760Z,16.99
2017-06-03T00:27:28.072Z,16.98
2017-06-03T00:27:32.499Z,16.99
2017-06-03T00:27:36.924Z,16.99
2017-06-03T00:27:41.344Z,16.99
2017-06-03T00:27:45.537Z,16.98
2017-06-03T00:27:49.884Z,16.98
2017-06-03T00:27:54.305Z,16.98
2017-06-03T00:27:58.723Z,16.98
2017-06-03T00:28:03.146Z,16.98
2017-06-03T00:28:07.574Z,16.97
2017-06-03T00:28:11.935Z,16.98
2017-06-03T00:28:16.240Z,16.98
2017-06-03T00:28:20.666Z,16.98
2017-06-03T00:28:25.086Z,16.98
2017-06-03T00:28:29.506Z,16.98
2017-06-03T00:28:33.697Z,16.98
2017-06-03T00:28:38.130Z,16.98
2017-06-03T00:28:42.552Z,16.98
2017-06-03T00:28:46.982Z,16.97
2017-06-03T00:28:51.317Z,16.97
2017-06-03T00:28:55.735Z,16.97
2017-06-03T00:29:00.163Z,16.98
2017-06-03T00:29:04.834Z,16.98
2017-06-03T00:29:09.301Z,16.97
2017-06-03T00:29:13.724Z,16.97
2017-06-03T00:29:18.049Z,16.97
2017-06-03T00:29:22.501Z,16.97
2017-06-03T00:29:26.926Z,16.97
2017-06-03T00:29:31.234Z,16.97
2017-06-03T00:29:35.664Z,16.97
2017-06-03T00:29:39.853Z,16.97
2017-06-03T00:29:44.277Z,16.96
2017-06-03T00:29:48.593Z,16.97
2017-06-03T00:29:52.903Z,16.97
2017-06-03T00:29:57.330Z,16.97
2017-06-03T00:30:01.952Z,16.98
2017-06-03T00:30:06.269Z,16.97
2017-06-03T00:30:10.584Z,16.97
2017-06-03T00:30:14.890Z,16.97
2017-06-03T00:30:19.313Z,16.97
2017-06-03T00:30:23.618Z,16.97
2017-06-03T00:30:27.839Z,16.97
2017-06-03T00:30:32.145Z,16.96
2017-06-03T00:30:36.569Z,16.97
2017-06-03T00:30:40.886Z,16.97
2017-06-03T00:30:45.306Z,16.96
2017-06-03T00:30:49.734Z,16.96
2017-06-03T00:30:54.158Z,16.97
2017-06-03T00:30:58.471Z,16.97
2017-06-03T00:31:02.915Z,16.96
2017-06-03T00:31:07.340Z,16.96
2017-06-03T00:31:11.781Z,16.96
2017-06-03T00:31:16.216Z,16.96
2017-06-03T00:31:20.522Z,16.96
2017-06-03T00:31:24.598Z,16.96
2017-06-03T00:31:29.057Z,16.95
2017-06-03T00:31:33.487Z,16.95
2017-06-03T00:31:37.928Z,16.95
2017-06-03T00:31:42.264Z,16.95
2017-06-03T00:31:46.691Z,16.95
2017-06-03T00:31:51.115Z,16.96
2017-06-03T00:31:55.537Z,16.96
2017-06-03T00:31:59.850Z,16.95
2017-06-03T00:32:04.427Z,16.95
2017-06-03T00:32:08.744Z,16.95
2017-06-03T00:32:13.172Z,16.96
2017-06-03T00:32:17.140Z,16.95
2017-06-03T00:32:21.563Z,16.95
2017-06-03T00:32:25.759Z,16.95
2017-06-03T00:32:30.071Z,16.96
2017-06-03T00:32:34.373Z,16.95
2017-06-03T00:32:38.687Z,16.94
2017-06-03T00:32:43.138Z,16.95
2017-06-03T00:32:47.558Z,16.94
2017-06-03T00:32:51.986Z,16.94
2017-06-03T00:32:56.293Z,16.94
2017-06-03T00:33:00.716Z,16.94
2017-06-03T00:33:05.337Z,16.94
2017-06-03T00:33:09.665Z,16.94
2017-06-03T00:33:13.849Z,16.94
2017-06-03T00:33:18.153Z,16.93
2017-06-03T00:33:22.579Z,16.94
2017-06-03T00:33:26.770Z,16.93
2017-06-03T00:33:31.081Z,16.93
2017-06-03T00:33:35.269Z,16.94
2017-06-03T00:33:39.576Z,16.94
2017-06-03T00:33:44.062Z,16.93
2017-06-03T00:33:48.519Z,16.93
2017-06-03T00:33:52.939Z,16.93
2017-06-03T00:33:57.360Z,16.93
2017-06-03T00:34:01.937Z,16.93
2017-06-03T00:34:06.361Z,16.93
2017-06-03T00:34:10.688Z,16.93
2017-06-03T00:34:14.993Z,16.93
2017-06-03T00:34:19.421Z,16.94
2017-06-03T00:34:23.729Z,16.93
2017-06-03T00:34:28.034Z,16.92
2017-06-03T00:34:32.455Z,16.93
2017-06-03T00:34:36.767Z,16.93
2017-06-03T00:34:41.095Z,16.93
2017-06-03T00:34:45.528Z,16.93
2017-06-03T00:34:49.835Z,16.92
2017-06-03T00:34:54.272Z,16.92
2017-06-03T00:34:58.702Z,16.93
2017-06-03T00:35:03.331Z,16.92
2017-06-03T00:35:07.664Z,16.92
2017-06-03T00:35:12.099Z,16.92
2017-06-03T00:35:16.524Z,16.91
2017-06-03T00:35:20.833Z,16.92
2017-06-03T00:35:25.145Z,16.91
2017-06-03T00:35:29.577Z,16.92
2017-06-03T00:35:33.999Z,16.92
2017-06-03T00:35:38.436Z,16.92
2017-06-03T00:35:42.865Z,16.92
2017-06-03T00:35:47.289Z,16.92
2017-06-03T00:35:51.718Z,16.92
2017-06-03T00:35:56.039Z,16.92
2017-06-03T00:36:00.345Z,16.92
2017-06-03T00:36:04.777Z,16.91
2017-06-03T00:36:09.216Z,16.92
2017-06-03T00:36:13.642Z,16.91
2017-06-03T00:36:17.952Z,16.91
2017-06-03T00:36:22.372Z,16.9
2017-06-03T00:36:26.801Z,16.9
2017-06-03T00:36:31.221Z,16.91
2017-06-03T00:36:35.644Z,16.92
2017-06-03T00:36:40.071Z,16.91
2017-06-03T00:36:44.144Z,16.91
2017-06-03T00:36:48.466Z,16.91
2017-06-03T00:36:52.893Z,16.91
2017-06-03T00:36:57.322Z,16.91
2017-06-03T00:37:01.848Z,16.91
2017-06-03T00:37:06.161Z,16.91
2017-06-03T00:37:10.582Z,16.91
2017-06-03T00:37:14.890Z,16.9
2017-06-03T00:37:19.203Z,16.9
2017-06-03T00:37:23.626Z,16.9
2017-06-03T00:37:27.939Z,16.91
2017-06-03T00:37:32.367Z,16.9
2017-06-03T00:37:36.796Z,16.9
2017-06-03T00:37:41.219Z,16.89
2017-06-03T00:37:45.522Z,16.9
2017-06-03T00:37:49.979Z,16.9
2017-06-03T00:37:54.402Z,16.9
2017-06-03T00:37:58.826Z,16.9
2017-06-03T00:38:03.127Z,16.9
2017-06-03T00:38:07.557Z,16.9
2017-06-03T00:38:11.982Z,16.89
2017-06-03T00:38:16.292Z,16.9
2017-06-03T00:38:20.593Z,16.9
2017-06-03T00:38:24.900Z,16.89
2017-06-03T00:38:29.213Z,16.9
2017-06-03T00:38:33.631Z,16.9
2017-06-03T00:38:37.939Z,16.89
2017-06-03T00:38:42.245Z,16.9
2017-06-03T00:38:46.560Z,16.9
2017-06-03T00:38:50.980Z,16.89
2017-06-03T00:38:56.172Z,16.89
2017-06-03T00:39:01.717Z,16.89
2017-06-03T00:39:08.001Z,16.89
2017-06-03T00:39:12.797Z,16.88
2017-06-03T00:39:17.950Z,16.88
2017-06-03T00:39:23.274Z,16.88
2017-06-03T00:39:28.078Z,16.88
2017-06-03T00:39:33.836Z,16.88
2017-06-03T00:39:38.273Z,16.88
2017-06-03T00:39:43.373Z,16.88
2017-06-03T00:39:48.756Z,16.88
2017-06-03T00:39:54.027Z,16.88
2017-06-03T00:39:58.580Z,16.88
2017-06-03T00:40:03.382Z,16.88
2017-06-03T00:40:08.996Z,16.87
2017-06-03T00:40:15.146Z,16.88
2017-06-03T00:40:19.986Z,16.87
2017-06-03T00:40:24.576Z,16.87
2017-06-03T00:40:29.427Z,16.87
2017-06-03T00:40:34.107Z,16.86
2017-06-03T00:40:39.681Z,16.87
2017-06-03T00:40:44.582Z,16.87
2017-06-03T00:40:48.919Z,16.86
2017-06-03T00:40:54.345Z,16.86
2017-06-03T00:40:59.922Z,16.87
2017-06-03T00:41:05.131Z,16.87
2017-06-03T00:41:09.578Z,16.87
2017-06-03T00:41:14.979Z,16.86
2017-06-03T00:41:19.526Z,16.87
2017-06-03T00:41:24.668Z,16.86
2017-06-03T00:41:29.228Z,16.86
2017-06-03T00:41:34.190Z,16.86
2017-06-03T00:41:38.826Z,16.86
2017-06-03T00:41:44.632Z,16.86
2017-06-03T00:41:49.875Z,16.86
2017-06-03T00:41:54.985Z,16.85
2017-06-03T00:42:00.139Z,16.85
2017-06-03T00:42:04.829Z,16.85
2017-06-03T00:42:09.136Z,16.85
2017-06-03T00:42:13.570Z,16.86
2017-06-03T00:42:18.002Z,16.86
2017-06-03T00:42:22.315Z,16.85
2017-06-03T00:42:26.735Z,16.85
2017-06-03T00:42:31.821Z,16.85
2017-06-03T00:42:37.591Z,16.85
2017-06-03T00:42:42.499Z,16.85
2017-06-03T00:42:47.535Z,16.85
2017-06-03T00:42:52.464Z,16.85
2017-06-03T00:42:57.017Z,16.85
2017-06-03T00:43:01.920Z,16.84
2017-06-03T00:43:06.963Z,16.84
2017-06-03T00:43:11.713Z,16.84
2017-06-03T00:43:16.327Z,16.84
2017-06-03T00:43:21.510Z,16.84
2017-06-03T00:43:26.075Z,16.84
2017-06-03T00:43:30.845Z,16.84
2017-06-03T00:43:35.680Z,16.84
2017-06-03T00:43:40.369Z,16.85
2017-06-03T00:43:46.246Z,16.84
2017-06-03T00:43:51.065Z,16.84
2017-06-03T00:43:56.836Z,16.84
2017-06-03T00:44:01.494Z,16.84
2017-06-03T00:44:06.176Z,16.84
2017-06-03T00:44:11.704Z,16.83
2017-06-03T00:44:16.777Z,16.84
2017-06-03T00:44:22.272Z,16.84
2017-06-03T00:44:26.839Z,16.84
2017-06-03T00:44:31.638Z,16.84
2017-06-03T00:44:38.245Z,16.84
2017-06-03T00:44:43.291Z,16.84
2017-06-03T00:44:48.380Z,16.83
2017-06-03T00:44:53.168Z,16.84
2017-06-03T00:44:57.483Z,16.84
2017-06-03T00:45:02.900Z,16.83
2017-06-03T00:45:09.273Z,16.83
2017-06-03T00:45:14.380Z,16.84
2017-06-03T00:45:20.348Z,16.84
2017-06-03T00:45:25.583Z,16.83
2017-06-03T00:45:30.953Z,16.84
2017-06-03T00:45:36.137Z,16.83
2017-06-03T00:45:41.788Z,16.83
2017-06-03T00:45:47.414Z,16.83
2017-06-03T00:45:52.973Z,16.83
2017-06-03T00:45:58.685Z,16.83
2017-06-03T00:46:04.250Z,16.83
2017-06-03T00:46:09.675Z,16.83
2017-06-03T00:46:14.774Z,16.83
2017-06-03T00:46:19.884Z,16.83
2017-06-03T00:46:24.545Z,16.83
2017-06-03T00:46:32.374Z,16.82
2017-06-03T00:46:37.160Z,16.83
2017-06-03T00:46:42.273Z,16.83
2017-06-03T00:46:46.824Z,16.82
2017-06-03T00:46:52.379Z,16.82
2017-06-03T00:46:57.398Z,16.82
2017-06-03T00:47:02.128Z,16.83
2017-06-03T00:47:07.701Z,16.82
2017-06-03T00:47:12.598Z,16.82
2017-06-03T00:47:17.712Z,16.82
2017-06-03T00:47:22.623Z,16.82
2017-06-03T00:47:27.594Z,16.82
2017-06-03T00:47:32.794Z,16.82
2017-06-03T00:47:38.834Z,16.82
2017-06-03T00:47:43.545Z,16.82
2017-06-03T00:47:49.011Z,16.81
2017-06-03T00:47:54.415Z,16.81
2017-06-03T00:47:59.161Z,16.81
2017-06-03T00:48:04.684Z,16.81
2017-06-03T00:48:10.244Z,16.81
2017-06-03T00:48:14.950Z,16.81
2017-06-03T00:48:20.179Z,16.82
2017-06-03T00:48:25.357Z,16.81
2017-06-03T00:48:31.109Z,16.81
2017-06-03T00:48:35.879Z,16.82
2017-06-03T00:48:41.322Z,16.81
2017-06-03T00:48:45.975Z,16.82
2017-06-03T00:48:50.501Z,16.81
2017-06-03T00:48:54.971Z,16.81
2017-06-03T00:49:00.068Z,16.81
2017-06-03T00:49:05.043Z,16.8
2017-06-03T00:49:09.816Z,16.81
2017-06-03T00:49:15.051Z,16.81
2017-06-03T00:49:20.418Z,16.81
2017-06-03T00:49:25.606Z,16.81
2017-06-03T00:49:31.185Z,16.81
2017-06-03T00:49:35.923Z,16.81
2017-06-03T00:49:40.967Z,16.81
2017-06-03T00:49:45.894Z,16.81
2017-06-03T00:49:50.866Z,16.8
2017-06-03T00:49:56.165Z,16.8
2017-06-03T00:50:01.999Z,16.8
2017-06-03T00:50:07.123Z,16.8
2017-06-03T00:50:11.735Z,16.8
2017-06-03T00:50:16.337Z,16.8
2017-06-03T00:50:21.030Z,16.8
2017-06-03T00:50:26.814Z,16.79
2017-06-03T00:50:31.990Z,16.79
2017-06-03T00:50:36.894Z,16.8
2017-06-03T00:50:42.711Z,16.79
2017-06-03T00:50:49.321Z,16.79
2017-06-03T00:50:54.120Z,16.8
2017-06-03T00:50:58.467Z,16.8
2017-06-03T00:51:03.180Z,16.79
2017-06-03T00:51:07.902Z,16.8
2017-06-03T00:51:13.064Z,16.79
2017-06-03T00:51:18.462Z,16.79
2017-06-03T00:51:23.321Z,16.79
2017-06-03T00:51:28.335Z,16.79
2017-06-03T00:51:33.185Z,16.8
2017-06-03T00:51:38.157Z,16.79
2017-06-03T00:51:43.446Z,16.79
2017-06-03T00:51:47.905Z,16.79
2017-06-03T00:51:52.461Z,16.79
2017-06-03T00:51:57.131Z,16.79
2017-06-03T00:52:01.691Z,16.79
2017-06-03T00:52:07.103Z,16.79
2017-06-03T00:52:12.474Z,16.78
2017-06-03T00:52:18.522Z,16.78
2017-06-03T00:52:23.210Z,16.78
2017-06-03T00:52:28.195Z,16.78
2017-06-03T00:52:33.137Z,16.78
2017-06-03T00:52:38.761Z,16.78
2017-06-03T00:52:43.588Z,16.78
2017-06-03T00:52:49.508Z,16.77
2017-06-03T00:52:54.672Z,16.78
2017-06-03T00:52:59.890Z,16.77
2017-06-03T00:53:06.048Z,16.78
2017-06-03T00:53:10.791Z,16.77
2017-06-03T00:53:15.644Z,16.76
2017-06-03T00:53:20.229Z,16.77
2017-06-03T00:53:25.401Z,16.76
2017-06-03T00:53:30.583Z,16.76
2017-06-03T00:53:35.334Z,16.76
2017-06-03T00:53:39.800Z,16.77
2017-06-03T00:53:44.290Z,16.77
2017-06-03T00:53:49.022Z,16.76
2017-06-03T00:53:54.191Z,16.76
2017-06-03T00:53:59.701Z,16.76
2017-06-03T00:54:06.146Z,16.75
2017-06-03T00:54:11.174Z,16.76
2017-06-03T00:54:16.540Z,16.75
2017-06-03T00:54:21.279Z,16.76
2017-06-03T00:54:25.702Z,16.75
2017-06-03T00:54:30.016Z,16.75
2017-06-03T00:54:34.445Z,16.75
2017-06-03T00:54:38.639Z,16.75
2017-06-03T00:54:42.948Z,16.75
2017-06-03T00:54:48.408Z,16.75
2017-06-03T00:54:53.386Z,16.75
2017-06-03T00:54:58.768Z,16.75
2017-06-03T00:55:03.646Z,16.75
2017-06-03T00:55:09.238Z,16.75
2017-06-03T00:55:13.880Z,16.74
2017-06-03T00:55:19.073Z,16.75
2017-06-03T00:55:23.634Z,16.75
2017-06-03T00:55:28.497Z,16.73
2017-06-03T00:55:33.126Z,16.74
2017-06-03T00:55:40.102Z,16.73
2017-06-03T00:55:45.181Z,16.73
2017-06-03T00:55:50.174Z,16.74
2017-06-03T00:55:55.205Z,16.73
2017-06-03T00:55:59.766Z,16.74
2017-06-03T00:56:05.339Z,16.74
2017-06-03T00:56:10.003Z,16.74
2017-06-03T00:56:14.955Z,16.73
2017-06-03T00:56:19.853Z,16.74
2017-06-03T00:56:24.925Z,16.74
2017-06-03T00:56:29.651Z,16.73
2017-06-03T00:56:34.999Z,16.74
2017-06-03T00:56:39.904Z,16.73
2017-06-03T00:56:45.097Z,16.73
2017-06-03T00:56:49.898Z,16.73
2017-06-03T00:56:54.642Z,16.73
2017-06-03T00:57:00.026Z,16.73
2017-06-03T00:57:04.585Z,16.72
2017-06-03T00:57:10.004Z,16.73
2017-06-03T00:57:14.760Z,16.73
2017-06-03T00:57:19.346Z,16.73
2017-06-03T00:57:24.099Z,16.73
2017-06-03T00:57:29.501Z,16.73
2017-06-03T00:57:34.260Z,16.72
2017-06-03T00:57:39.128Z,16.73
2017-06-03T00:57:43.781Z,16.73
2017-06-03T00:57:48.246Z,16.72
2017-06-03T00:57:53.207Z,16.72
2017-06-03T00:57:58.611Z,16.72
2017-06-03T00:58:03.489Z,16.73
2017-06-03T00:58:08.861Z,16.72
2017-06-03T00:58:15.085Z,16.72
2017-06-03T00:58:20.466Z,16.72
2017-06-03T00:58:25.135Z,16.72
2017-06-03T00:58:29.923Z,16.72
2017-06-03T00:58:34.684Z,16.72
2017-06-03T00:58:39.426Z,16.72
2017-06-03T00:58:43.732Z,16.72
2017-06-03T00:58:48.035Z,16.72
2017-06-03T00:58:52.463Z,16.72
2017-06-03T00:58:57.188Z,16.72
2017-06-03T00:59:02.102Z,16.71
2017-06-03T00:59:09.001Z,16.71
2017-06-03T00:59:15.946Z,16.72
2017-06-03T00:59:21.958Z,16.71
2017-06-03T00:59:26.682Z,16.71
2017-06-03T00:59:31.665Z,16.72
2017-06-03T00:59:36.960Z,16.72
2017-06-03T00:59:41.665Z,16.72
2017-06-03T00:59:47.103Z,16.71
2017-06-03T00:59:52.207Z,16.7
2017-06-03T00:59:57.052Z,16.71
2017-06-03T01:00:01.547Z,16.71
2017-06-03T01:00:06.762Z,16.7
2017-06-03T01:00:11.549Z,16.71
2017-06-03T01:00:16.500Z,16.7
2017-06-03T01:00:21.915Z,16.71
2017-06-03T01:00:27.210Z,16.71
2017-06-03T01:00:32.602Z,16.7
2017-06-03T01:00:37.847Z,16.71
2017-06-03T01:00:44.081Z,16.7
2017-06-03T01:00:49.794Z,16.7
2017-06-03T01:00:55.209Z,16.7
2017-06-03T01:01:01.990Z,16.7
2017-06-03T01:01:10.818Z,16.7
2017-06-03T01:01:15.463Z,16.69
2017-06-03T01:01:22.263Z,16.7
2017-06-03T01:01:28.118Z,16.69
2017-06-03T01:01:35.358Z,16.7
2017-06-03T01:01:42.515Z,16.69
2017-06-03T01:01:47.629Z,16.69
2017-06-03T01:01:53.631Z,16.69
2017-06-03T01:02:00.047Z,16.7
2017-06-03T01:02:04.934Z,16.7
2017-06-03T01:02:10.986Z,16.69
2017-06-03T01:02:16.097Z,16.7
2017-06-03T01:02:21.598Z,16.71
2017-06-03T01:02:26.637Z,16.7
2017-06-03T01:02:31.759Z,16.69
2017-06-03T01:02:36.822Z,16.7
2017-06-03T01:02:41.840Z,16.7
2017-06-03T01:02:46.673Z,16.69
2017-06-03T01:02:51.872Z,16.71
2017-06-03T01:02:56.739Z,16.7
2017-06-03T01:03:01.285Z,16.7
2017-06-03T01:03:06.177Z,16.71
2017-06-03T01:03:11.899Z,16.7
2017-06-03T01:03:17.265Z,16.7
2017-06-03T01:03:22.201Z,16.71
2017-06-03T01:03:27.191Z,16.71
2017-06-03T01:03:32.326Z,16.7
2017-06-03T01:03:37.082Z,16.7
2017-06-03T01:03:42.159Z,16.7
2017-06-03T01:03:47.004Z,16.7
2017-06-03T01:03:51.777Z,16.71